KLBB/LBB METAR and TAF weather

Enter ICAO airport designator
Station Type Date Time Source
KLBB METAR 2019/06/26 15:53 UTC NOAA

KLBB 261553Z 20011KT 10SM FEW250 27/17 A3014 RMK AO2 SLP154 T02720172


Station Type Date Time Source
KLBB Decoded METAR 2019/06/26 15:53 UTC NOAA

LUBBOCK INTERNATIONAL AIRPORT , TX, United States (KLBB) 33-40N 101-49W 992M
Jun 26, 2019 - 11:53 AM EDT / 2019.06.26 1553 UTC
Wind: from the SSW (200 degrees) at 13 MPH (11 KT):0
Visibility: 10 mile(s):0
Sky conditions: mostly clear
Temperature: 81.0 F (27.2 C)
Dew Point: 63.0 F (17.2 C)
Relative Humidity: 54%
Pressure (altimeter): 30.14 in. Hg (1020 hPa)
ob: KLBB 261553Z 20011KT 10SM FEW250 27/17 A3014 RMK AO2 SLP154 T02720172
cycle: 16

Station Type Date Time Source
KLBB TAF 2019/06/26 12:42 UTC NOAA

TAF
AMD KLBB 261138Z 2612/2712 20015KT P6SM FEW250
FM261800 18011KT P6SM FEW250
FM270100 16011KT P6SM FEW250

Example: see airport list